RJOARJFU

Guest
Details From RJOA - HIROSHIMA
To RJFU - NAGASAKI
Flight Number -
Tags generated
Created
Modified
Stats Distance 177 nm / 328 km
Max Altitude 18,000 ft / 5,486 m
Waypoints 3
Social Downloads 1
Likes 0
Share VATSIM

Download

Looking for another format? Having issues loading an existing format? Contact us
Advertisement - Login to hide

Notes

Basic altitude profile: - Ascent Rate: 2500ft/min - Ascent Speed: 250kts - Cruise Altitude: 35000ft - Cruise Speed: 420kts - Descent Rate: 1500ft/min - Descent Speed: 250kts Options: - Use NATs: yes - Use PACOTS: yes - Use low airways: yes - Use high airways: yes

Route

RJOA IWC45 RJFU

ID Type Via Altitude Latitude Longitude Leg Dist Tot Dist Heading (true) Name
O RJOA APT - 0 ft / 0 m 34.43603˚ 132.91944˚ - 0 nm - HIROSHIMA
IWC45 FIX - 18,000 ft / 5,486 m 33.87095˚ 131.28085˚ 88 nm 88 nm 248° / 247° -
O RJFU APT - 0 ft / 0 m 32.92250˚ 129.92346˚ 88 nm 176 nm 230° / 230° NAGASAKI

Altitude Profile

Advertisement - Login to hide

Weather


0- 5 10 15 20 25 30 35+ Temperature / ° C

Clouds and Precipitation
Forecast for 2018-05-28 00:00 UTC. Updated 9 hours ago

Ground ~20,000 ft ~40,000 ft Winds

RJOA

Details ICAO RJOA (HIJ)
Name HIROSHIMA
Region Japan
Timezone Asia/Tokyo (UTC+9.0)
Stats Elevation 1,088 ft / 332 m (AMSL)
Location 34.436025° 132.919444°
Runways 1
Magnetic Variation 7.728° W

METAR

Not found

TAF

TAF RJOA 272309Z 2800/2906 22004KT 9999 FEW025 BECMG 2802/2804 14005KT TEMPO 2821/2900 3500 RA BR TEMPO 2900/2906 2500 RA BR FEW001 SCT005 BKN008

Decode

Departure Runways

ID Width Length Bearing (true) Bearing (mag) Surface Threshold Offset Overrun Length
10 200 ft / 61 m 9,823 ft / 2,994 m 89.99° 97.72° Asphalt 0 ft / 0 m 210 ft / 64 m
28 200 ft / 61 m 9,823 ft / 2,994 m 270.01° 277.74° Asphalt 0 ft / 0 m 210 ft / 64 m

RJFU

Details ICAO RJFU (NGS)
Name NAGASAKI
Region Japan
Timezone Asia/Tokyo (UTC+9.0)
Stats Elevation 15 ft / 5 m (AMSL)
Location 32.922505° 129.923457°
Runways 2
Magnetic Variation 7.272° W

METAR

Not found

TAF

TAF RJFU 272306Z 2800/2906 12010KT 8000 -SHRA FEW008 SCT015 BKN025 TEMPO 2800/2806 4000 SHRA BR BECMG 2900/2903 34006KT

Decode

Destination Runways

ID Width Length Bearing (true) Bearing (mag) Surface Threshold Offset Overrun Length
14 200 ft / 61 m 9,851 ft / 3,003 m 138.12° 145.39° Asphalt 0 ft / 0 m 200 ft / 61 m
18 100 ft / 30 m 4,363 ft / 1,330 m 174.19° 181.46° Asphalt 245 ft / 75 m 0 ft / 0 m
32 200 ft / 61 m 9,851 ft / 3,003 m 318.14° 325.41° Asphalt 0 ft / 0 m 200 ft / 61 m
36 100 ft / 30 m 4,363 ft / 1,330 m 354.19° 1.46° Asphalt 245 ft / 75 m 0 ft / 0 m

Approach Navaids

Runway Type Ident Frequency Range Bearing (true) Bearing (mag) Slope Elevation
32 Localiser IOM 110.90 MHz 18 nm / 33 km 318.95° 326.22° - 30 ft / 9 m (AMSL)
32 Glidescope IOM 110.90 MHz 10 nm / 19 km 318.13° 325.40° 3.00° 15 ft / 5 m (AMSL)
32 DME IOM 110.90 MHz 18 nm / 33 km - - - 30 ft / 9 m (AMSL)

Popular Alternatives